< < Back
Terminal Aerodrome Forecast


Current Version              Previous Versions:   1  2  3  4  5  6  7  8  9  

Terminal Aerodrome Forecast

015
FTUS42 KMLB 242100 AAA
TAFMCO
TAF AMD
KMCO 242102Z 2421/2518 16010KT P6SM SCT080
     FM242200 12011KT P6SM SCT040 BKN060
     FM250200 VRB03KT P6SM FEW030 SCT080
     FM251400 24007KT P6SM SKC=

Latest METAR

152
SAUS70 KWBC 242300 RRB
MTRMCO
METAR KMCO 242253Z 12010KT 10SM SCT055 BKN080 BKN110 27/18 A2993 RMK AO2
SLP134 T02720183


USA.gov is the U.S. government's official web portal to all federal, state and local government web resources and services.